sensor_id;sensor_type;location;lat;lon;timestamp;pressure;altitude;pressure_sealevel;temperature;humidity
26859;BME280;14429;48.346;16.338;2022-10-18T00:02:01;100814.97;;;19.08;59.08
26859;BME280;14429;48.346;16.338;2022-10-18T00:04:27;100824.41;;;19.14;58.97
26859;BME280;14429;48.346;16.338;2022-10-18T00:06:52;100816.44;;;18.81;58.68
26859;BME280;14429;48.346;16.338;2022-10-18T00:09:17;100824.19;;;18.44;57.76
26859;BME280;14429;48.346;16.338;2022-10-18T00:11:44;100824.53;;;18.92;59.34
26859;BME280;14429;48.346;16.338;2022-10-18T00:14:10;100819.91;;;18.31;56.84
26859;BME280;14429;48.346;16.338;2022-10-18T00:16:35;100814.63;;;17.86;56.09
26859;BME280;14429;48.346;16.338;2022-10-18T00:19:00;100809.84;;;18.22;60.25
26859;BME280;14429;48.346;16.338;2022-10-18T00:21:26;100808.16;;;17.99;59.36
26859;BME280;14429;48.346;16.338;2022-10-18T00:23:52;100806.47;;;18.51;60.28
26859;BME280;14429;48.346;16.338;2022-10-18T00:26:20;100806.84;;;18.88;59.47
26859;BME280;14429;48.346;16.338;2022-10-18T00:28:49;100808.97;;;19.05;58.95
26859;BME280;14429;48.346;16.338;2022-10-18T00:31:17;100805.81;;;19.00;59.10
26859;BME280;14429;48.346;16.338;2022-10-18T00:33:44;100807.00;;;19.07;58.81
26859;BME280;14429;48.346;16.338;2022-10-18T00:36:11;100812.13;;;19.10;58.78
26859;BME280;14429;48.346;16.338;2022-10-18T00:38:37;100806.31;;;18.63;55.13
26859;BME280;14429;48.346;16.338;2022-10-18T00:41:03;100800.66;;;18.97;58.64
26859;BME280;14429;48.346;16.338;2022-10-18T00:43:29;100801.09;;;19.02;58.80
26859;BME280;14429;48.346;16.338;2022-10-18T00:45:56;100804.34;;;18.96;58.42
26859;BME280;14429;48.346;16.338;2022-10-18T00:48:22;100816.97;;;18.23;54.80
26859;BME280;14429;48.346;16.338;2022-10-18T00:50:49;100808.97;;;17.56;56.00
26859;BME280;14429;48.346;16.338;2022-10-18T00:53:17;100811.97;;;18.60;59.99
26859;BME280;14429;48.346;16.338;2022-10-18T00:55:43;100805.53;;;19.03;58.88
26859;BME280;14429;48.346;16.338;2022-10-18T00:58:10;100802.09;;;19.01;58.27
26859;BME280;14429;48.346;16.338;2022-10-18T01:00:37;100799.94;;;19.15;58.40
26859;BME280;14429;48.346;16.338;2022-10-18T01:03:04;100794.31;;;19.27;57.92
26859;BME280;14429;48.346;16.338;2022-10-18T01:05:29;100796.44;;;19.04;57.66
26859;BME280;14429;48.346;16.338;2022-10-18T01:08:18;100800.00;;;18.32;57.41
26859;BME280;14429;48.346;16.338;2022-10-18T01:10:53;100787.25;;;18.64;58.73
26859;BME280;14429;48.346;16.338;2022-10-18T01:13:25;100790.03;;;19.05;58.64
26859;BME280;14429;48.346;16.338;2022-10-18T01:15:57;100790.44;;;19.20;58.07
26859;BME280;14429;48.346;16.338;2022-10-18T01:18:30;100781.00;;;19.35;57.71
26859;BME280;14429;48.346;16.338;2022-10-18T01:21:11;100781.00;;;19.35;57.58
26859;BME280;14429;48.346;16.338;2022-10-18T01:24:01;100782.44;;;19.39;57.29
26859;BME280;14429;48.346;16.338;2022-10-18T01:26:50;100784.09;;;19.31;57.47
26859;BME280;14429;48.346;16.338;2022-10-18T01:29:24;100792.22;;;18.49;53.64
26859;BME280;14429;48.346;16.338;2022-10-18T01:31:57;100794.34;;;18.65;57.84
26859;BME280;14429;48.346;16.338;2022-10-18T01:34:25;100794.78;;;17.54;55.72
26859;BME280;14429;48.346;16.338;2022-10-18T01:36:53;100794.66;;;17.67;57.41
26859;BME280;14429;48.346;16.338;2022-10-18T01:39:22;100800.13;;;17.33;56.10
26859;BME280;14429;48.346;16.338;2022-10-18T01:41:49;100791.00;;;17.12;57.44
26859;BME280;14429;48.346;16.338;2022-10-18T01:44:20;100799.34;;;17.20;62.00
26859;BME280;14429;48.346;16.338;2022-10-18T01:46:47;100793.28;;;16.95;57.61
26859;BME280;14429;48.346;16.338;2022-10-18T01:49:14;100790.97;;;17.68;62.04
26859;BME280;14429;48.346;16.338;2022-10-18T01:51:39;100788.16;;;17.69;60.76
26859;BME280;14429;48.346;16.338;2022-10-18T01:54:05;100792.06;;;18.19;60.83
26859;BME280;14429;48.346;16.338;2022-10-18T01:56:37;100786.91;;;18.16;59.10
26859;BME280;14429;48.346;16.338;2022-10-18T01:59:18;100784.56;;;18.23;60.46
26859;BME280;14429;48.346;16.338;2022-10-18T02:01:53;100786.88;;;17.95;59.91
26859;BME280;14429;48.346;16.338;2022-10-18T02:04:30;100791.06;;;18.20;60.33
26859;BME280;14429;48.346;16.338;2022-10-18T02:07:03;100780.91;;;17.81;56.48
26859;BME280;14429;48.346;16.338;2022-10-18T02:09:35;100788.13;;;17.91;59.24
26859;BME280;14429;48.346;16.338;2022-10-18T02:12:02;100789.88;;;18.13;60.17
26859;BME280;14429;48.346;16.338;2022-10-18T02:14:29;100782.47;;;18.26;60.05
26859;BME280;14429;48.346;16.338;2022-10-18T02:16:57;100777.00;;;18.48;59.54
26859;BME280;14429;48.346;16.338;2022-10-18T02:19:29;100783.50;;;18.04;55.66
26859;BME280;14429;48.346;16.338;2022-10-18T02:21:56;100780.84;;;18.65;59.37
26859;BME280;14429;48.346;16.338;2022-10-18T02:24:27;100771.44;;;18.80;59.05
26859;BME280;14429;48.346;16.338;2022-10-18T02:26:54;100777.56;;;18.93;58.44
26859;BME280;14429;48.346;16.338;2022-10-18T02:29:19;100772.75;;;18.96;58.53
26859;BME280;14429;48.346;16.338;2022-10-18T02:31:46;100775.66;;;19.04;58.14
26859;BME280;14429;48.346;16.338;2022-10-18T02:34:17;100770.84;;;19.08;58.10
26859;BME280;14429;48.346;16.338;2022-10-18T02:36:48;100772.63;;;19.18;58.02
26859;BME280;14429;48.346;16.338;2022-10-18T02:39:17;100776.66;;;19.23;57.62
26859;BME280;14429;48.346;16.338;2022-10-18T02:41:44;100776.66;;;19.23;57.38
26859;BME280;14429;48.346;16.338;2022-10-18T02:44:09;100780.97;;;18.95;56.44
26859;BME280;14429;48.346;16.338;2022-10-18T02:46:35;100770.59;;;19.11;57.70
26859;BME280;14429;48.346;16.338;2022-10-18T02:49:01;100779.16;;;19.16;57.64
26859;BME280;14429;48.346;16.338;2022-10-18T02:51:26;100774.59;;;19.16;57.37
26859;BME280;14429;48.346;16.338;2022-10-18T02:53:53;100778.34;;;19.24;57.35
26859;BME280;14429;48.346;16.338;2022-10-18T02:56:18;100781.53;;;19.29;57.10
26859;BME280;14429;48.346;16.338;2022-10-18T02:58:44;100777.56;;;19.33;57.00
26859;BME280;14429;48.346;16.338;2022-10-18T03:01:09;100775.56;;;19.35;56.86
26859;BME280;14429;48.346;16.338;2022-10-18T03:03:35;100775.31;;;19.38;56.75
26859;BME280;14429;48.346;16.338;2022-10-18T03:06:00;100780.72;;;19.38;56.77
26859;BME280;14429;48.346;16.338;2022-10-18T03:08:25;100779.88;;;19.38;56.68
26859;BME280;14429;48.346;16.338;2022-10-18T03:10:52;100794.41;;;19.37;56.69
26859;BME280;14429;48.346;16.338;2022-10-18T03:13:18;100795.00;;;19.40;56.62
26859;BME280;14429;48.346;16.338;2022-10-18T03:15:43;100793.25;;;19.39;56.66
26859;BME280;14429;48.346;16.338;2022-10-18T03:18:09;100801.13;;;19.42;56.63
26859;BME280;14429;48.346;16.338;2022-10-18T03:20:34;100800.97;;;19.43;56.45
26859;BME280;14429;48.346;16.338;2022-10-18T03:23:00;100805.81;;;19.40;56.52
26859;BME280;14429;48.346;16.338;2022-10-18T03:25:25;100810.34;;;19.40;56.49
26859;BME280;14429;48.346;16.338;2022-10-18T03:27:52;100807.78;;;19.38;56.56
26859;BME280;14429;48.346;16.338;2022-10-18T03:30:17;100811.75;;;19.34;56.26
26859;BME280;14429;48.346;16.338;2022-10-18T03:32:43;100814.91;;;19.39;56.49
26859;BME280;14429;48.346;16.338;2022-10-18T03:35:08;100817.09;;;19.45;56.40
26859;BME280;14429;48.346;16.338;2022-10-18T03:37:34;100826.56;;;19.40;56.41
26859;BME280;14429;48.346;16.338;2022-10-18T03:40:00;100821.56;;;19.35;56.66
26859;BME280;14429;48.346;16.338;2022-10-18T03:42:25;100814.59;;;19.33;56.65
26859;BME280;14429;48.346;16.338;2022-10-18T03:44:52;100825.13;;;19.36;56.42
26859;BME280;14429;48.346;16.338;2022-10-18T03:47:17;100832.28;;;19.37;56.40
26859;BME280;14429;48.346;16.338;2022-10-18T03:49:43;100822.56;;;19.34;56.58
26859;BME280;14429;48.346;16.338;2022-10-18T03:52:08;100821.84;;;19.32;56.24
26859;BME280;14429;48.346;16.338;2022-10-18T03:54:34;100826.53;;;19.30;56.63
26859;BME280;14429;48.346;16.338;2022-10-18T03:56:59;100816.22;;;19.24;56.70
26859;BME280;14429;48.346;16.338;2022-10-18T03:59:25;100824.34;;;19.24;56.81
26859;BME280;14429;48.346;16.338;2022-10-18T04:01:51;100820.19;;;19.20;56.90
26859;BME280;14429;48.346;16.338;2022-10-18T04:04:17;100821.63;;;19.24;56.73
26859;BME280;14429;48.346;16.338;2022-10-18T04:06:42;100812.81;;;19.22;56.84
26859;BME280;14429;48.346;16.338;2022-10-18T04:09:08;100799.72;;;19.27;56.61
26859;BME280;14429;48.346;16.338;2022-10-18T04:11:33;100804.16;;;19.28;56.61
26859;BME280;14429;48.346;16.338;2022-10-18T04:13:59;100810.31;;;19.30;56.62
26859;BME280;14429;48.346;16.338;2022-10-18T04:16:24;100812.84;;;19.32;56.42
26859;BME280;14429;48.346;16.338;2022-10-18T04:18:51;100814.00;;;19.29;56.46
26859;BME280;14429;48.346;16.338;2022-10-18T04:21:17;100810.56;;;19.27;56.84
26859;BME280;14429;48.346;16.338;2022-10-18T04:23:42;100817.41;;;19.31;56.40
26859;BME280;14429;48.346;16.338;2022-10-18T04:26:08;100811.66;;;19.25;56.69
26859;BME280;14429;48.346;16.338;2022-10-18T04:28:34;100814.50;;;19.23;56.66
26859;BME280;14429;48.346;16.338;2022-10-18T04:31:00;100820.94;;;19.22;56.68
26859;BME280;14429;48.346;16.338;2022-10-18T04:33:25;100823.50;;;19.24;56.56
26859;BME280;14429;48.346;16.338;2022-10-18T04:35:53;100828.63;;;19.27;56.60
26859;BME280;14429;48.346;16.338;2022-10-18T04:38:18;100833.31;;;19.25;56.61
26859;BME280;14429;48.346;16.338;2022-10-18T04:40:44;100825.09;;;19.26;56.49
26859;BME280;14429;48.346;16.338;2022-10-18T04:43:09;100826.78;;;19.27;56.34
26859;BME280;14429;48.346;16.338;2022-10-18T04:45:35;100817.38;;;19.22;56.52
26859;BME280;14429;48.346;16.338;2022-10-18T04:48:01;100813.81;;;19.21;56.59
26859;BME280;14429;48.346;16.338;2022-10-18T04:50:27;100811.09;;;19.21;56.65
26859;BME280;14429;48.346;16.338;2022-10-18T04:52:53;100815.78;;;19.19;56.56
26859;BME280;14429;48.346;16.338;2022-10-18T04:55:19;100816.78;;;19.18;56.58
26859;BME280;14429;48.346;16.338;2022-10-18T04:57:45;100818.09;;;19.04;54.43
26859;BME280;14429;48.346;16.338;2022-10-18T05:00:11;100819.03;;;19.03;56.99
26859;BME280;14429;48.346;16.338;2022-10-18T05:02:37;100813.88;;;19.11;56.86
26859;BME280;14429;48.346;16.338;2022-10-18T05:05:03;100816.44;;;19.12;56.78
26859;BME280;14429;48.346;16.338;2022-10-18T05:07:28;100816.03;;;19.17;56.57
26859;BME280;14429;48.346;16.338;2022-10-18T05:09:55;100827.84;;;19.16;56.65
26859;BME280;14429;48.346;16.338;2022-10-18T05:12:21;100818.63;;;19.18;56.44
26859;BME280;14429;48.346;16.338;2022-10-18T05:14:46;100827.59;;;19.18;56.43
26859;BME280;14429;48.346;16.338;2022-10-18T05:17:12;100823.16;;;19.17;56.55
26859;BME280;14429;48.346;16.338;2022-10-18T05:19:37;100820.72;;;19.15;56.59
26859;BME280;14429;48.346;16.338;2022-10-18T05:22:02;100822.44;;;19.16;56.44
26859;BME280;14429;48.346;16.338;2022-10-18T05:24:28;100819.00;;;19.14;56.59
26859;BME280;14429;48.346;16.338;2022-10-18T05:26:55;100822.59;;;19.14;56.53
26859;BME280;14429;48.346;16.338;2022-10-18T05:29:20;100824.53;;;19.12;56.50
26859;BME280;14429;48.346;16.338;2022-10-18T05:31:47;100820.13;;;19.11;56.59
26859;BME280;14429;48.346;16.338;2022-10-18T05:34:12;100828.09;;;19.13;56.47
26859;BME280;14429;48.346;16.338;2022-10-18T05:36:37;100827.38;;;19.11;56.60
26859;BME280;14429;48.346;16.338;2022-10-18T05:39:03;100825.66;;;19.10;56.66
26859;BME280;14429;48.346;16.338;2022-10-18T05:41:29;100826.41;;;19.12;56.55
26859;BME280;14429;48.346;16.338;2022-10-18T05:43:56;100832.81;;;19.11;56.61
26859;BME280;14429;48.346;16.338;2022-10-18T05:46:22;100830.34;;;19.08;56.71
26859;BME280;14429;48.346;16.338;2022-10-18T05:48:49;100827.28;;;19.01;56.81
26859;BME280;14429;48.346;16.338;2022-10-18T05:51:14;100825.19;;;19.05;56.68
26859;BME280;14429;48.346;16.338;2022-10-18T05:53:40;100832.06;;;19.09;56.67
26859;BME280;14429;48.346;16.338;2022-10-18T05:56:05;100827.38;;;19.11;56.60
26859;BME280;14429;48.346;16.338;2022-10-18T05:58:31;100828.94;;;19.13;56.42
26859;BME280;14429;48.346;16.338;2022-10-18T06:00:59;100836.97;;;19.15;56.37
26859;BME280;14429;48.346;16.338;2022-10-18T06:03:25;100831.81;;;19.12;56.52
26859;BME280;14429;48.346;16.338;2022-10-18T06:05:50;100833.75;;;19.10;56.58
26859;BME280;14429;48.346;16.338;2022-10-18T06:08:15;100835.50;;;19.11;56.49
26859;BME280;14429;48.346;16.338;2022-10-18T06:10:41;100830.09;;;19.11;56.52
26859;BME280;14429;48.346;16.338;2022-10-18T06:13:06;100831.19;;;19.08;56.55
26859;BME280;14429;48.346;16.338;2022-10-18T06:15:32;100842.88;;;19.09;56.54
26859;BME280;14429;48.346;16.338;2022-10-18T06:17:58;100837.47;;;19.09;56.56
26859;BME280;14429;48.346;16.338;2022-10-18T06:20:24;100844.88;;;19.07;56.57
26859;BME280;14429;48.346;16.338;2022-10-18T06:22:51;100848.28;;;19.09;56.61
26859;BME280;14429;48.346;16.338;2022-10-18T06:25:16;100858.25;;;19.08;56.55
26859;BME280;14429;48.346;16.338;2022-10-18T06:27:42;100855.69;;;19.07;56.63
26859;BME280;14429;48.346;16.338;2022-10-18T06:30:08;100863.81;;;19.07;56.66
26859;BME280;14429;48.346;16.338;2022-10-18T06:32:34;100857.66;;;19.05;56.68
26859;BME280;14429;48.346;16.338;2022-10-18T06:35:00;100864.75;;;19.06;56.63
26859;BME280;14429;48.346;16.338;2022-10-18T06:37:28;100858.25;;;19.08;56.52
26859;BME280;14429;48.346;16.338;2022-10-18T06:39:53;100869.31;;;19.05;56.73
26859;BME280;14429;48.346;16.338;2022-10-18T06:42:19;100862.81;;;19.08;56.54
26859;BME280;14429;48.346;16.338;2022-10-18T06:44:44;100858.78;;;18.91;57.10
26859;BME280;14429;48.346;16.338;2022-10-18T06:47:10;100863.31;;;19.02;56.63
26859;BME280;14429;48.346;16.338;2022-10-18T06:49:35;100870.72;;;19.00;56.81
26859;BME280;14429;48.346;16.338;2022-10-18T06:52:02;100870.97;;;17.35;60.45
26859;BME280;14429;48.346;16.338;2022-10-18T06:54:27;100874.94;;;16.62;64.03
26859;BME280;14429;48.346;16.338;2022-10-18T06:56:54;100878.88;;;17.49;62.04
26859;BME280;14429;48.346;16.338;2022-10-18T06:59:20;100872.81;;;18.22;59.53
26859;BME280;14429;48.346;16.338;2022-10-18T07:01:45;100867.38;;;18.55;58.35
26859;BME280;14429;48.346;16.338;2022-10-18T07:04:10;100871.25;;;18.72;57.74
26859;BME280;14429;48.346;16.338;2022-10-18T07:06:36;100877.16;;;18.77;57.51
26859;BME280;14429;48.346;16.338;2022-10-18T07:09:03;100868.25;;;18.86;57.18
26859;BME280;14429;48.346;16.338;2022-10-18T07:11:28;100883.03;;;18.82;57.26
26859;BME280;14429;48.346;16.338;2022-10-18T07:13:58;100880.81;;;18.76;57.49
26859;BME280;14429;48.346;16.338;2022-10-18T07:16:24;100872.00;;;18.63;57.43
26859;BME280;14429;48.346;16.338;2022-10-18T07:18:50;100867.28;;;18.87;57.27
26859;BME280;14429;48.346;16.338;2022-10-18T07:21:17;100870.97;;;18.86;57.30
26859;BME280;14429;48.346;16.338;2022-10-18T07:23:44;100866.06;;;18.91;57.10
26859;BME280;14429;48.346;16.338;2022-10-18T07:26:14;100871.84;;;18.76;57.04
26859;BME280;14429;48.346;16.338;2022-10-18T07:28:39;100869.50;;;18.93;56.93
26859;BME280;14429;48.346;16.338;2022-10-18T07:31:06;100874.88;;;19.04;56.65
26859;BME280;14429;48.346;16.338;2022-10-18T07:33:31;100870.72;;;19.00;56.64
26859;BME280;14429;48.346;16.338;2022-10-18T07:35:59;100873.28;;;19.01;56.67
26859;BME280;14429;48.346;16.338;2022-10-18T07:38:25;100873.41;;;19.00;56.74
26859;BME280;14429;48.346;16.338;2022-10-18T07:40:55;100874.66;;;18.96;56.82
26859;BME280;14429;48.346;16.338;2022-10-18T07:43:21;100867.50;;;18.95;56.78
26859;BME280;14429;48.346;16.338;2022-10-18T07:45:50;100863.84;;;18.96;56.87
26859;BME280;14429;48.346;16.338;2022-10-18T07:48:16;100863.81;;;19.07;56.50
26859;BME280;14429;48.346;16.338;2022-10-18T07:50:41;100862.81;;;19.08;56.37
26859;BME280;14429;48.346;16.338;2022-10-18T07:53:07;100873.88;;;19.05;56.54
26859;BME280;14429;48.346;16.338;2022-10-18T07:55:32;100869.22;;;19.07;56.46
26859;BME280;14429;48.346;16.338;2022-10-18T07:57:58;100870.16;;;19.06;56.49
26859;BME280;14429;48.346;16.338;2022-10-18T08:00:25;100875.75;;;18.30;55.61
26859;BME280;14429;48.346;16.338;2022-10-18T08:02:54;100865.19;;;18.38;57.73
26859;BME280;14429;48.346;16.338;2022-10-18T08:05:20;100873.25;;;17.62;58.46
26859;BME280;14429;48.346;16.338;2022-10-18T08:07:45;100879.13;;;17.56;56.08
26859;BME280;14429;48.346;16.338;2022-10-18T08:10:10;100872.47;;;17.28;58.14
26859;BME280;14429;48.346;16.338;2022-10-18T08:12:36;100867.91;;;18.06;59.52
26859;BME280;14429;48.346;16.338;2022-10-18T08:15:01;100867.63;;;18.52;58.29
26859;BME280;14429;48.346;16.338;2022-10-18T08:17:28;100855.56;;;18.66;57.26
26859;BME280;14429;48.346;16.338;2022-10-18T08:19:53;100862.09;;;18.53;56.79
26859;BME280;14429;48.346;16.338;2022-10-18T08:22:19;100861.72;;;18.47;56.01
26859;BME280;14429;48.346;16.338;2022-10-18T08:24:44;100867.66;;;18.19;54.96
26859;BME280;14429;48.346;16.338;2022-10-18T08:27:10;100861.44;;;18.61;57.60
26859;BME280;14429;48.346;16.338;2022-10-18T08:29:35;100860.19;;;18.75;57.17
26859;BME280;14429;48.346;16.338;2022-10-18T08:32:00;100856.69;;;18.95;56.75
26859;BME280;14429;48.346;16.338;2022-10-18T08:34:27;100853.94;;;19.06;56.53
26859;BME280;14429;48.346;16.338;2022-10-18T08:36:53;100851.97;;;19.08;56.21
26859;BME280;14429;48.346;16.338;2022-10-18T08:39:18;100843.66;;;19.00;53.49
26859;BME280;14429;48.346;16.338;2022-10-18T08:42:11;100843.88;;;19.08;56.02
26859;BME280;14429;48.346;16.338;2022-10-18T08:44:43;100852.84;;;18.66;52.25
26859;BME280;14429;48.346;16.338;2022-10-18T08:47:12;100840.38;;;18.86;55.80
26859;BME280;14429;48.346;16.338;2022-10-18T08:49:42;100829.28;;;18.99;53.40
26859;BME280;14429;48.346;16.338;2022-10-18T08:52:14;100837.31;;;18.79;53.84
26859;BME280;14429;48.346;16.338;2022-10-18T08:54:51;100830.91;;;18.91;53.48
26859;BME280;14429;48.346;16.338;2022-10-18T08:57:18;100830.66;;;18.83;53.43
26859;BME280;14429;48.346;16.338;2022-10-18T08:59:44;100836.31;;;18.80;55.97
26859;BME280;14429;48.346;16.338;2022-10-18T09:02:25;100839.22;;;18.99;56.00
26859;BME280;14429;48.346;16.338;2022-10-18T09:05:02;100838.09;;;18.70;52.88
26859;BME280;14429;48.346;16.338;2022-10-18T09:07:45;100830.19;;;18.89;55.67
26859;BME280;14429;48.346;16.338;2022-10-18T09:10:20;100832.00;;;18.99;54.29
26859;BME280;14429;48.346;16.338;2022-10-18T09:13:06;100828.09;;;19.13;56.04
26859;BME280;14429;48.346;16.338;2022-10-18T09:15:40;100826.13;;;19.15;55.91
26859;BME280;14429;48.346;16.338;2022-10-18T09:18:18;100821.44;;;19.17;55.91
26859;BME280;14429;48.346;16.338;2022-10-18T09:20:52;100818.72;;;19.17;55.92
26859;BME280;14429;48.346;16.338;2022-10-18T09:23:22;100815.97;;;19.07;55.89
26859;BME280;14429;48.346;16.338;2022-10-18T09:25:57;100815.56;;;19.12;56.08
26859;BME280;14429;48.346;16.338;2022-10-18T09:28:34;100817.03;;;19.16;55.77
26859;BME280;14429;48.346;16.338;2022-10-18T09:31:07;100818.28;;;19.12;54.37
26859;BME280;14429;48.346;16.338;2022-10-18T09:33:44;100808.78;;;19.17;55.80
26859;BME280;14429;48.346;16.338;2022-10-18T09:36:16;100803.31;;;19.08;54.00
26859;BME280;14429;48.346;16.338;2022-10-18T09:38:45;100805.31;;;18.95;53.96
26859;BME280;14429;48.346;16.338;2022-10-18T09:41:17;100798.22;;;18.94;54.28
26859;BME280;14429;48.346;16.338;2022-10-18T09:43:50;100798.41;;;18.71;54.13
26859;BME280;14429;48.346;16.338;2022-10-18T09:46:19;100792.84;;;18.72;54.08
26859;BME280;14429;48.346;16.338;2022-10-18T09:48:49;100795.84;;;18.69;54.29
26859;BME280;14429;48.346;16.338;2022-10-18T09:51:19;100797.31;;;18.73;54.31
26859;BME280;14429;48.346;16.338;2022-10-18T09:53:55;100792.19;;;18.60;53.76
26859;BME280;14429;48.346;16.338;2022-10-18T09:56:25;100795.66;;;18.51;54.43
26859;BME280;14429;48.346;16.338;2022-10-18T09:58:55;100791.09;;;18.82;56.74
26859;BME280;14429;48.346;16.338;2022-10-18T10:01:23;100798.31;;;18.62;54.41
26859;BME280;14429;48.346;16.338;2022-10-18T10:03:49;100797.59;;;18.60;55.04
26859;BME280;14429;48.346;16.338;2022-10-18T10:06:21;100799.34;;;18.81;56.42
26859;BME280;14429;48.346;16.338;2022-10-18T10:08:48;100795.75;;;18.91;55.25
26859;BME280;14429;48.346;16.338;2022-10-18T10:11:35;100787.84;;;18.99;54.83
26859;BME280;14429;48.346;16.338;2022-10-18T10:14:11;100785.44;;;18.85;55.04
26859;BME280;14429;48.346;16.338;2022-10-18T10:16:49;100798.25;;;18.72;54.76
26859;BME280;14429;48.346;16.338;2022-10-18T10:19:22;100785.44;;;18.85;56.41
26859;BME280;14429;48.346;16.338;2022-10-18T10:21:53;100784.44;;;18.97;56.73
26859;BME280;14429;48.346;16.338;2022-10-18T10:24:24;100784.69;;;18.83;56.54
26859;BME280;14429;48.346;16.338;2022-10-18T10:26:58;100784.94;;;18.91;56.89
26859;BME280;14429;48.346;16.338;2022-10-18T10:29:50;100779.03;;;18.97;57.30
26859;BME280;14429;48.346;16.338;2022-10-18T10:32:18;100779.56;;;19.11;56.41
26859;BME280;14429;48.346;16.338;2022-10-18T10:34:44;100777.91;;;19.19;56.11
26859;BME280;14429;48.346;16.338;2022-10-18T10:37:23;100771.63;;;19.19;58.43
26859;BME280;14429;48.346;16.338;2022-10-18T10:40:14;100763.25;;;19.22;56.27
26859;BME280;14429;48.346;16.338;2022-10-18T10:42:57;100770.63;;;19.20;58.86
26859;BME280;14429;48.346;16.338;2022-10-18T10:45:25;100773.56;;;19.08;57.13
26859;BME280;14429;48.346;16.338;2022-10-18T10:47:52;100769.03;;;19.17;57.10
26859;BME280;14429;48.346;16.338;2022-10-18T10:50:22;100761.66;;;19.19;57.97
26859;BME280;14429;48.346;16.338;2022-10-18T10:52:50;100754.97;;;19.14;57.36
26859;BME280;14429;48.346;16.338;2022-10-18T10:55:17;100753.44;;;19.01;59.92
26859;BME280;14429;48.346;16.338;2022-10-18T10:57:44;100756.09;;;18.81;61.14
26859;BME280;14429;48.346;16.338;2022-10-18T11:00:35;100743.22;;;19.04;57.35
26859;BME280;14429;48.346;16.338;2022-10-18T11:03:05;100750.41;;;19.15;56.69
26859;BME280;14429;48.346;16.338;2022-10-18T11:05:41;100740.19;;;19.18;56.37
26859;BME280;14429;48.346;16.338;2022-10-18T11:08:10;100748.66;;;19.14;58.49
26859;BME280;14429;48.346;16.338;2022-10-18T11:10:43;100741.53;;;19.13;59.15
26859;BME280;14429;48.346;16.338;2022-10-18T11:13:20;100740.09;;;19.09;58.03
26859;BME280;14429;48.346;16.338;2022-10-18T11:15:51;100729.94;;;19.21;56.70
26859;BME280;14429;48.346;16.338;2022-10-18T11:18:20;100721.09;;;19.19;57.18
26859;BME280;14429;48.346;16.338;2022-10-18T11:20:51;100731.00;;;19.10;58.02
26859;BME280;14429;48.346;16.338;2022-10-18T11:23:19;100720.34;;;19.17;56.69
26859;BME280;14429;48.346;16.338;2022-10-18T11:25:57;100728.09;;;19.02;60.69
26859;BME280;14429;48.346;16.338;2022-10-18T11:28:32;100731.16;;;18.88;61.37
26859;BME280;14429;48.346;16.338;2022-10-18T11:31:11;100731.81;;;19.01;58.82
26859;BME280;14429;48.346;16.338;2022-10-18T11:33:47;100719.91;;;19.13;57.06
26859;BME280;14429;48.346;16.338;2022-10-18T11:36:20;100720.91;;;19.12;57.93
26859;BME280;14429;48.346;16.338;2022-10-18T11:38:54;100710.69;;;19.15;57.14
26859;BME280;14429;48.346;16.338;2022-10-18T11:41:29;100711.69;;;19.14;58.43
26859;BME280;14429;48.346;16.338;2022-10-18T11:43:57;100714.25;;;19.16;58.26
26859;BME280;14429;48.346;16.338;2022-10-18T11:46:32;100717.38;;;19.20;58.50
26859;BME280;14429;48.346;16.338;2022-10-18T11:49:10;100712.25;;;19.17;57.35
26859;BME280;14429;48.346;16.338;2022-10-18T11:51:48;100720.50;;;19.16;60.54
26859;BME280;14429;48.346;16.338;2022-10-18T11:54:33;100715.56;;;19.01;61.63
26859;BME280;14429;48.346;16.338;2022-10-18T11:57:12;100714.38;;;18.94;62.30
26859;BME280;14429;48.346;16.338;2022-10-18T11:59:44;100704.75;;;19.01;61.61
26859;BME280;14429;48.346;16.338;2022-10-18T12:02:42;100707.88;;;18.96;60.34
26859;BME280;14429;48.346;16.338;2022-10-18T12:05:11;100707.78;;;18.87;60.66
26859;BME280;14429;48.346;16.338;2022-10-18T12:07:42;100707.56;;;18.79;62.11
26859;BME280;14429;48.346;16.338;2022-10-18T12:10:16;100703.16;;;18.78;61.75
26859;BME280;14429;48.346;16.338;2022-10-18T12:12:48;100702.38;;;18.87;61.67
26859;BME280;14429;48.346;16.338;2022-10-18T12:15:17;100691.06;;;18.93;62.19
26859;BME280;14429;48.346;16.338;2022-10-18T12:17:46;100691.16;;;19.12;58.91
26859;BME280;14429;48.346;16.338;2022-10-18T12:20:16;100681.41;;;19.00;61.05
26859;BME280;14429;48.346;16.338;2022-10-18T12:22:48;100677.91;;;19.09;59.11
26859;BME280;14429;48.346;16.338;2022-10-18T12:25:17;100673.94;;;19.13;57.74
26859;BME280;14429;48.346;16.338;2022-10-18T12:27:45;100676.13;;;19.18;58.03
26859;BME280;14429;48.346;16.338;2022-10-18T12:30:17;100662.13;;;19.14;58.36
26859;BME280;14429;48.346;16.338;2022-10-18T12:32:45;100662.94;;;19.05;60.19
26859;BME280;14429;48.346;16.338;2022-10-18T12:35:14;100662.03;;;19.24;57.05
26859;BME280;14429;48.346;16.338;2022-10-18T12:38:01;100655.34;;;19.28;56.84
26859;BME280;14429;48.346;16.338;2022-10-18T12:40:35;100654.91;;;19.23;58.28
26859;BME280;14429;48.346;16.338;2022-10-18T12:43:08;100649.94;;;19.28;58.92
26859;BME280;14429;48.346;16.338;2022-10-18T12:45:34;100644.00;;;19.34;57.01
26859;BME280;14429;48.346;16.338;2022-10-18T12:48:26;100643.72;;;19.37;56.78
26859;BME280;14429;48.346;16.338;2022-10-18T12:50:57;100638.44;;;19.36;56.68